Stolt Shearwater — ZCRD9 — position and weather

sailwx.info

Track history (hours):
 
Tides and Currents Weather Stations Pressure Air Temp Water Temp Dewpoint Dewpoint Depression Visibility Wind Speed Wind Dir Waves Ship Positions

Stolt Shearwater

Last reported at 2017-Oct-19 03:30 UTC. Time now 2017-Oct-19 03:40 UTC.
Position N 53°17' W 002°51'.

Length 96 m; draft 5 m.

Type: Ship (hazmat cat C). MMSI: 319402000.

Date/timePositionNaut miles runAvg speedWind from/ knotsBaromVisibWave heightAir tempDewpointWater temp
2017-Oct-19 03:30N 53°17' W 002°51'0 0.0
2017-Oct-19 03:00N 53°17' W 002°51'0 0.0
2017-Oct-19 02:30N 53°17' W 002°51'0 0.0
2017-Oct-19 02:00N 53°17' W 002°51'0 0.0
2017-Oct-19 01:30N 53°17' W 002°51'0 0.3
2017-Oct-19 01:00N 53°17' W 002°51'0 0.0
2017-Oct-19 00:27N 53°17' W 002°51'0 0.0
2017-Oct-18 23:57N 53°17' W 002°51'0 0.0
2017-Oct-18 23:30N 53°17' W 002°51'0 0.0
2017-Oct-18 23:00N 53°17' W 002°51'0 0.0
2017-Oct-18 22:30N 53°17' W 002°51'0 0.0
2017-Oct-18 22:00N 53°17' W 002°51'0 0.0
2017-Oct-18 21:30N 53°17' W 002°51'0 0.0
2017-Oct-18 21:00N 53°17' W 002°51'0 0.0
2017-Oct-18 20:24N 53°17' W 002°51'0 0.0
2017-Oct-18 20:00N 53°17' W 002°51'0 0.0
2017-Oct-18 19:30N 53°17' W 002°51'0 0.0
2017-Oct-18 19:00N 53°17' W 002°51'0 0.0
2017-Oct-18 18:30N 53°17' W 002°51'0 0.0
2017-Oct-18 18:00N 53°17' W 002°51'0 0.0
2017-Oct-18 17:21N 53°17' W 002°51'0 0.0
2017-Oct-18 17:00N 53°17' W 002°51'0 0.0
2017-Oct-18 16:30N 53°17' W 002°51'1 1.5
2017-Oct-18 15:58N 53°17' W 002°52'0 0.3
2017-Oct-18 15:28N 53°17' W 002°52'0 0.0
2017-Oct-18 14:55N 53°17' W 002°52'0 0.0
2017-Oct-18 13:58N 53°17' W 002°52'0 0.0
2017-Oct-18 13:28N 53°17' W 002°52'0 0.0
2017-Oct-18 12:58N 53°17' W 002°52'0 0.0
2017-Oct-18 12:25N 53°17' W 002°52'0 0.0
2017-Oct-18 11:58N 53°17' W 002°52'0 0.0
2017-Oct-18 11:22N 53°17' W 002°52'0 0.0
2017-Oct-18 10:55N 53°17' W 002°52'0 0.0
2017-Oct-18 10:25N 53°17' W 002°52'0 0.0
2017-Oct-18 09:58N 53°17' W 002°52'0 0.0
2017-Oct-18 09:28N 53°17' W 002°52'0 0.0
2017-Oct-18 08:58N 53°17' W 002°52'0 0.0
2017-Oct-18 08:28N 53°17' W 002°52'0 0.0
2017-Oct-18 07:55N 53°17' W 002°52'0 0.0
2017-Oct-18 07:28N 53°17' W 002°52'0 0.0
2017-Oct-18 06:58N 53°17' W 002°52'0 0.0
2017-Oct-18 06:28N 53°17' W 002°52'0 0.0
2017-Oct-18 05:58N 53°17' W 002°52'0 0.0
2017-Oct-18 05:28N 53°17' W 002°52'0 0.0
2017-Oct-18 04:58N 53°17' W 002°52'0 0.0
2017-Oct-18 04:25N 53°17' W 002°52'0 0.0
2017-Oct-18 03:55N 53°17' W 002°52'0 0.0
2017-Oct-18 03:28N 53°17' W 002°52'0 0.0
2017-Oct-18 02:58N 53°17' W 002°52'0 0.0
2017-Oct-18 02:28N 53°17' W 002°52'0 0.0
2017-Oct-18 01:55N 53°17' W 002°52'0 0.0
2017-Oct-18 01:28N 53°17' W 002°52'0 0.0
2017-Oct-18 00:58N 53°17' W 002°52'0 0.0
2017-Oct-18 00:29N 53°17' W 002°52'1 1.4
2017-Oct-18 00:00N 53°17' W 002°53'3 5.3
2017-Oct-17 23:30N 53°19' W 002°57'1 1.1
2017-Oct-17 23:00N 53°20' W 002°57'1 2.3
2017-Oct-17 22:30N 53°21' W 002°58'2 3.9
2017-Oct-17 22:00N 53°22' W 002°59'3 6.4
2017-Oct-17 21:30N 53°25' W 003°01'5 9.8
2017-Oct-17 21:00N 53°30' W 003°06'4 8.7
2017-Oct-17 20:30N 53°31' W 003°12'5 9.7
2017-Oct-17 20:00N 53°32' W 003°20'4 7.6
2017-Oct-17 19:30N 53°31' W 003°27'4 8.6
2017-Oct-17 19:00N 53°31' W 003°34'4 9.0
2017-Oct-17 18:30N 53°30' W 003°41'4 9.0
2017-Oct-17 18:00N 53°28' W 003°48'5 9.1
2017-Oct-17 17:29N 53°26' W 003°55'3 0.1
2017-Oct-16 14:00N 53°27' W 004°00'3 7.0
2017-Oct-16 13:30N 53°29' W 003°56'4 8.0
2017-Oct-16 12:58N 53°32' W 003°50'4 9.2
2017-Oct-16 12:30N 53°34' W 003°44'4 7.8
2017-Oct-16 12:00N 53°34' W 003°37'1 3.0
2017-Oct-16 11:30N 53°34' W 003°34'3 5.2
2017-Oct-16 11:00N 53°34' W 003°30'3 5.2
2017-Oct-16 10:30N 53°33' W 003°26'3 5.0
2017-Oct-16 10:00N 53°33' W 003°22'3 5.1
2017-Oct-16 09:30N 53°32' W 003°18'4 8.4
2017-Oct-16 09:00N 53°32' W 003°11'510.8
2017-Oct-16 08:30N 53°28' W 003°04'510.2
2017-Oct-16 08:00N 53°24' W 002°60'4 8.9
2017-Oct-16 07:30N 53°20' W 002°57'1 1.1
2017-Oct-16 07:00N 53°19' W 002°57'2 4.8
2017-Oct-16 06:30N 53°17' W 002°54'2 3.6
2017-Oct-16 06:00N 53°17' W 002°51'0 0.0
2017-Oct-16 05:30N 53°17' W 002°51'0 0.0
2017-Oct-16 05:00N 53°17' W 002°51'0 0.0
2017-Oct-16 04:30N 53°17' W 002°51'0 0.0
2017-Oct-16 03:57N 53°17' W 002°51'0 0.0
2017-Oct-16 03:30N 53°17' W 002°51'0 0.0
2017-Oct-16 02:57N 53°17' W 002°51'0 0.0
2017-Oct-16 02:30N 53°17' W 002°51'0 0.0
2017-Oct-16 02:00N 53°17' W 002°51'0 0.0
2017-Oct-16 01:30N 53°17' W 002°51'0 0.0
2017-Oct-16 00:54N 53°17' W 002°51'0 0.0
2017-Oct-16 00:24N 53°17' W 002°51'0 0.0
2017-Oct-16 00:00N 53°17' W 002°51'0 0.0
2017-Oct-15 23:27N 53°17' W 002°51'0 0.0
2017-Oct-15 23:00N 53°17' W 002°51'0 0.0
2017-Oct-15 22:27N 53°17' W 002°51'0 0.0
2017-Oct-15 22:00N 53°17' W 002°51'0 0.0
2017-Oct-15 21:27N 53°17' W 002°51'0 0.0
2017-Oct-15 21:00N 53°17' W 002°51'0 0.0
2017-Oct-15 20:30N 53°17' W 002°51'0 0.0
2017-Oct-15 20:00N 53°17' W 002°51'0 0.0
2017-Oct-15 19:30N 53°17' W 002°51'0 0.0
2017-Oct-15 19:00N 53°17' W 002°51'0 0.0
2017-Oct-15 18:30N 53°17' W 002°51'0 0.0
2017-Oct-15 18:00N 53°17' W 002°51'0 0.0
2017-Oct-15 17:24N 53°17' W 002°51'0 0.0
2017-Oct-15 16:57N 53°17' W 002°51'0 0.0
2017-Oct-15 16:27N 53°17' W 002°51'0 0.0
2017-Oct-15 16:00N 53°17' W 002°51'0 0.0
2017-Oct-15 15:30N 53°17' W 002°51'0 0.0
2017-Oct-15 15:00N 53°17' W 002°51'0 0.0
2017-Oct-15 14:00N 53°17' W 002°51'0 0.0
2017-Oct-15 13:30N 53°17' W 002°51'0 0.0
2017-Oct-15 13:00N 53°17' W 002°51'0 0.0
2017-Oct-15 12:30N 53°17' W 002°51'0 0.0
2017-Oct-15 12:00N 53°17' W 002°51'0 0.0
2017-Oct-15 11:30N 53°17' W 002°51'0 0.0
2017-Oct-15 11:00N 53°17' W 002°51'0 0.0
2017-Oct-15 10:30N 53°17' W 002°51'0 0.0
2017-Oct-15 10:00N 53°17' W 002°51'0 0.0
2017-Oct-15 09:30N 53°17' W 002°51'0 0.0
2017-Oct-15 09:00N 53°17' W 002°51'0 0.0
2017-Oct-15 08:30N 53°17' W 002°51'0 0.0
2017-Oct-15 08:00N 53°17' W 002°51'0 0.0
2017-Oct-15 07:27N 53°17' W 002°51'0 0.0
2017-Oct-15 07:00N 53°17' W 002°51'0 0.0
2017-Oct-15 06:30N 53°17' W 002°51'0 0.0
2017-Oct-15 05:57N 53°17' W 002°51'0 0.0
2017-Oct-15 05:30N 53°17' W 002°51'0 0.0
2017-Oct-15 05:00N 53°17' W 002°51'0 0.0
2017-Oct-15 04:30N 53°17' W 002°51'0 0.0
2017-Oct-15 03:57N 53°17' W 002°51'0 0.0
2017-Oct-15 03:24N 53°17' W 002°51'0 0.0
2017-Oct-15 03:00N 53°17' W 002°51'0 0.0
2017-Oct-15 02:30N 53°17' W 002°51'0 0.0
2017-Oct-15 01:57N 53°17' W 002°51'0 0.0
2017-Oct-15 01:27N 53°17' W 002°51'0 0.0
2017-Oct-15 01:00N 53°17' W 002°51'0 0.0
2017-Oct-15 00:30N 53°17' W 002°51'0 0.0
2017-Oct-15 00:00N 53°17' W 002°51'0 0.0
2017-Oct-14 23:30N 53°17' W 002°51'0 0.0
2017-Oct-14 23:00N 53°17' W 002°51'0 0.0
2017-Oct-14 22:30N 53°17' W 002°51'0 0.0
2017-Oct-14 22:00N 53°17' W 002°51'0 0.0
2017-Oct-14 21:30N 53°17' W 002°51'0 0.0
2017-Oct-14 21:01N 53°17' W 002°51'0 0.0
2017-Oct-14 20:30N 53°17' W 002°51'1 1.6
2017-Oct-14 20:00N 53°17' W 002°52'2 3.6
2017-Oct-14 19:30N 53°18' W 002°55'2 3.7
2017-Oct-14 19:00N 53°19' W 002°57'1 2.1
2017-Oct-14 18:31N 53°20' W 002°58'5 9.0
2017-Oct-14 18:01N 53°24' W 003°01'612.2
2017-Oct-14 17:30N 53°30' W 003°06'510.0
2017-Oct-14 17:01N 53°31' W 003°14'510.5
2017-Oct-14 16:30N 53°32' W 003°23'2 4.2
2017-Oct-14 16:01N 53°32' W 003°26'3 5.7
2017-Oct-14 15:30N 53°32' W 003°31'4 8.4
2017-Oct-14 15:00N 53°31' W 003°38'510.5
2017-Oct-14 14:30N 53°33' W 003°47'5910.2
2017-Oct-14 08:39N 54°12' W 005°02'311.2
2017-Oct-14 08:24N 54°15' W 005°03'411.3
2017-Oct-14 08:01N 54°19' W 005°06'611.0
2017-Oct-14 07:31N 54°24' W 005°09'510.8
2017-Oct-14 07:01N 54°29' W 005°12'510.8
2017-Oct-14 06:30N 54°34' W 005°15'611.5
2017-Oct-14 06:01N 54°40' W 005°18'611.8
2017-Oct-14 05:30N 54°45' W 005°21'612.6
2017-Oct-14 05:00N 54°51' W 005°28'613.0
2017-Oct-14 04:30N 54°56' W 005°34'1613.2
2017-Oct-14 03:17N 55°09' W 005°51'413.2
2017-Oct-14 03:00N 55°12' W 005°55'713.3
2017-Oct-14 02:30N 55°17' W 006°02'612.8
2017-Oct-14 02:00N 55°21' W 006°10'612.1
2017-Oct-14 01:31N 55°24' W 006°19'612.1
2017-Oct-14 01:00N 55°29' W 006°26'611.6
2017-Oct-14 00:31N 55°34' W 006°32'510.9
2017-Oct-14 00:00N 55°39' W 006°37'510.5
2017-Oct-13 23:30N 55°43' W 006°41'510.2
2017-Oct-13 23:00N 55°48' W 006°44'510.1
2017-Oct-13 22:30N 55°53' W 006°48'187 6.8
2017-Oct-12 19:03N 58°41' W 004°16'111.3
2017-Oct-12 18:59N 58°41' W 004°15'611.0
2017-Oct-12 18:26N 58°41' W 004°03'510.7
2017-Oct-12 18:00N 58°41' W 003°54'510.6
2017-Oct-12 17:30N 58°41' W 003°44'510.9
2017-Oct-12 17:00N 58°41' W 003°33'510.6
2017-Oct-12 16:30N 58°41' W 003°23'510.6
2017-Oct-12 16:00N 58°40' W 003°13'4 8.8
2017-Oct-12 15:30N 58°39' W 003°05'4 7.5
2017-Oct-12 15:00N 58°37' W 002°59'5 9.8
2017-Oct-12 14:30N 58°33' W 002°53'53 7.9
2017-Oct-12 07:49N 57°51' W 001°54'310.0
2017-Oct-12 07:30N 57°48' W 001°50'510.3
2017-Oct-12 07:00N 57°44' W 001°45'510.3
2017-Oct-12 06:30N 57°40' W 001°39'510.0
2017-Oct-12 06:00N 57°35' W 001°37'510.1
2017-Oct-12 05:31N 57°30' W 001°36'2310.3
2017-Oct-12 03:19N 57°08' W 001°32'9311.0
2017-Oct-11 18:53N 55°35' W 001°19'4 9.8
2017-Oct-11 18:30N 55°31' W 001°18'510.1
2017-Oct-11 18:00N 55°26' W 001°17'510.4
2017-Oct-11 17:30N 55°21' W 001°16'510.4
2017-Oct-11 17:00N 55°16' W 001°15'35 1.4
2017-Oct-10 15:07N 54°41' W 001°05'0 3.5
2017-Oct-10 15:00N 54°41' W 001°04'2 0.6
2017-Oct-10 10:49N 54°42' W 001°00'0 0.1
2017-Oct-10 10:16N 54°42' W 001°00'0 0.0
2017-Oct-10 09:49N 54°42' W 001°00'0 0.0
2017-Oct-10 09:22N 54°42' W 001°00'0 0.0
2017-Oct-10 08:52N 54°42' W 001°00'0 0.0
2017-Oct-10 08:19N 54°42' W 001°00'0 0.0
2017-Oct-10 07:52N 54°42' W 001°00'0 0.0
2017-Oct-10 07:10N 54°42' W 001°00'0 0.0
2017-Oct-10 06:55N 54°42' W 001°00'0 0.0
2017-Oct-10 06:10N 54°42' W 001°00'0 0.0
2017-Oct-10 05:25N 54°42' W 001°00'0 0.0
2017-Oct-10 04:55N 54°42' W 001°00'0 0.0
2017-Oct-10 04:25N 54°42' W 001°00'0 0.0
2017-Oct-10 03:58N 54°42' W 001°00'0 0.0
2017-Oct-10 03:28N 54°42' W 001°00'0 0.1
2017-Oct-10 02:58N 54°42' W 001°00'0 0.0
2017-Oct-10 02:28N 54°42' W 001°00'0 0.0
2017-Oct-10 01:58N 54°42' W 001°00'0 0.0
2017-Oct-10 00:28N 54°42' W 001°00'0 0.0
2017-Oct-09 23:58N 54°42' W 001°00'0 0.0
2017-Oct-09 22:34N 54°42' W 001°00'0 0.0
2017-Oct-09 22:19N 54°42' W 001°00'0 0.0
2017-Oct-09 21:49N 54°42' W 001°00'0 0.0
2017-Oct-09 21:19N 54°42' W 001°00'0 0.0
2017-Oct-09 20:49N 54°42' W 001°00'0 0.0
2017-Oct-09 18:22N 54°42' W 001°00'0 0.0
2017-Oct-09 17:10N 54°42' W 001°00'0 0.0
2017-Oct-09 16:34N 54°42' W 001°00'0 0.1
2017-Oct-09 16:25N 54°42' W 001°00'0 0.1
2017-Oct-09 15:55N 54°42' W 001°00'0 0.0
2017-Oct-09 12:28N 54°42' W 001°00'0 0.0
2017-Oct-09 11:46N 54°42' W 001°00'0 0.1
2017-Oct-09 11:25N 54°42' W 001°00'19 8.9
2017-Oct-09 09:14N 54°33' W 000°31'2 9.2
2017-Oct-09 09:00N 54°32' W 000°27'5 9.1
2017-Oct-09 08:30N 54°29' W 000°21'4 8.6
2017-Oct-09 08:00N 54°26' W 000°16'4 8.2
2017-Oct-09 07:30N 54°23' W 000°11'4 7.9
2017-Oct-09 07:00N 54°21' W 000°05'4 7.4
2017-Oct-09 06:30N 54°18' W 000°02'4 7.1
2017-Oct-09 06:00N 54°15' E 000°02'3 6.8
2017-Oct-09 05:30N 54°13' E 000°07'3 6.4
2017-Oct-09 05:00N 54°11' E 000°11'3 6.7
2017-Oct-09 04:30N 54°09' E 000°16'3 6.9
2017-Oct-09 04:00N 54°07' E 000°21'4 7.1
2017-Oct-09 03:30N 54°04' E 000°21'  
Track history (hours):
 
Tides and Currents Weather Stations Pressure Air Temp Water Temp Dewpoint Dewpoint Depression Visibility Wind Speed Wind Dir Waves Ship Positions

Stolt Shearwater

Last reported at 2017-Oct-19 03:30 UTC. Time now 2017-Oct-19 03:40 UTC.
Position N 53°17' W 002°51'.

Length 96 m; draft 5 m.

Type: Ship (hazmat cat C). MMSI: 319402000.

Date/timePositionNaut miles runAvg speedWind from/ knotsBaromVisibWave heightAir tempDewpointWater temp
2017-Oct-19 03:30N 53°17' W 002°51'0 0.0
2017-Oct-19 03:00N 53°17' W 002°51'0 0.0
2017-Oct-19 02:30N 53°17' W 002°51'0 0.0
2017-Oct-19 02:00N 53°17' W 002°51'0 0.0
2017-Oct-19 01:30N 53°17' W 002°51'0 0.3
2017-Oct-19 01:00N 53°17' W 002°51'0 0.0
2017-Oct-19 00:27N 53°17' W 002°51'0 0.0
2017-Oct-18 23:57N 53°17' W 002°51'0 0.0
2017-Oct-18 23:30N 53°17' W 002°51'0 0.0
2017-Oct-18 23:00N 53°17' W 002°51'0 0.0
2017-Oct-18 22:30N 53°17' W 002°51'0 0.0
2017-Oct-18 22:00N 53°17' W 002°51'0 0.0
2017-Oct-18 21:30N 53°17' W 002°51'0 0.0
2017-Oct-18 21:00N 53°17' W 002°51'0 0.0
2017-Oct-18 20:24N 53°17' W 002°51'0 0.0
2017-Oct-18 20:00N 53°17' W 002°51'0 0.0
2017-Oct-18 19:30N 53°17' W 002°51'0 0.0
2017-Oct-18 19:00N 53°17' W 002°51'0 0.0
2017-Oct-18 18:30N 53°17' W 002°51'0 0.0
2017-Oct-18 18:00N 53°17' W 002°51'0 0.0
2017-Oct-18 17:21N 53°17' W 002°51'0 0.0
2017-Oct-18 17:00N 53°17' W 002°51'0 0.0
2017-Oct-18 16:30N 53°17' W 002°51'1 1.5
2017-Oct-18 15:58N 53°17' W 002°52'0 0.3
2017-Oct-18 15:28N 53°17' W 002°52'0 0.0
2017-Oct-18 14:55N 53°17' W 002°52'0 0.0
2017-Oct-18 13:58N 53°17' W 002°52'0 0.0
2017-Oct-18 13:28N 53°17' W 002°52'0 0.0
2017-Oct-18 12:58N 53°17' W 002°52'0 0.0
2017-Oct-18 12:25N 53°17' W 002°52'0 0.0
2017-Oct-18 11:58N 53°17' W 002°52'0 0.0
2017-Oct-18 11:22N 53°17' W 002°52'0 0.0
2017-Oct-18 10:55N 53°17' W 002°52'0 0.0
2017-Oct-18 10:25N 53°17' W 002°52'0 0.0
2017-Oct-18 09:58N 53°17' W 002°52'0 0.0
2017-Oct-18 09:28N 53°17' W 002°52'0 0.0
2017-Oct-18 08:58N 53°17' W 002°52'0 0.0
2017-Oct-18 08:28N 53°17' W 002°52'0 0.0
2017-Oct-18 07:55N 53°17' W 002°52'0 0.0
2017-Oct-18 07:28N 53°17' W 002°52'0 0.0
2017-Oct-18 06:58N 53°17' W 002°52'0 0.0
2017-Oct-18 06:28N 53°17' W 002°52'0 0.0
2017-Oct-18 05:58N 53°17' W 002°52'0 0.0
2017-Oct-18 05:28N 53°17' W 002°52'0 0.0
2017-Oct-18 04:58N 53°17' W 002°52'0 0.0
2017-Oct-18 04:25N 53°17' W 002°52'0 0.0
2017-Oct-18 03:55N 53°17' W 002°52'0 0.0
2017-Oct-18 03:28N 53°17' W 002°52'0 0.0
2017-Oct-18 02:58N 53°17' W 002°52'0 0.0
2017-Oct-18 02:28N 53°17' W 002°52'0 0.0
2017-Oct-18 01:55N 53°17' W 002°52'0 0.0
2017-Oct-18 01:28N 53°17' W 002°52'0 0.0
2017-Oct-18 00:58N 53°17' W 002°52'0 0.0
2017-Oct-18 00:29N 53°17' W 002°52'1 1.4
2017-Oct-18 00:00N 53°17' W 002°53'3 5.3
2017-Oct-17 23:30N 53°19' W 002°57'1 1.1
2017-Oct-17 23:00N 53°20' W 002°57'1 2.3
2017-Oct-17 22:30N 53°21' W 002°58'2 3.9
2017-Oct-17 22:00N 53°22' W 002°59'3 6.4
2017-Oct-17 21:30N 53°25' W 003°01'5 9.8
2017-Oct-17 21:00N 53°30' W 003°06'4 8.7
2017-Oct-17 20:30N 53°31' W 003°12'5 9.7
2017-Oct-17 20:00N 53°32' W 003°20'4 7.6
2017-Oct-17 19:30N 53°31' W 003°27'4 8.6
2017-Oct-17 19:00N 53°31' W 003°34'4 9.0
2017-Oct-17 18:30N 53°30' W 003°41'4 9.0
2017-Oct-17 18:00N 53°28' W 003°48'5 9.1
2017-Oct-17 17:29N 53°26' W 003°55'3 0.1
2017-Oct-16 14:00N 53°27' W 004°00'3 7.0
2017-Oct-16 13:30N 53°29' W 003°56'4 8.0
2017-Oct-16 12:58N 53°32' W 003°50'4 9.2
2017-Oct-16 12:30N 53°34' W 003°44'4 7.8
2017-Oct-16 12:00N 53°34' W 003°37'1 3.0
2017-Oct-16 11:30N 53°34' W 003°34'3 5.2
2017-Oct-16 11:00N 53°34' W 003°30'3 5.2
2017-Oct-16 10:30N 53°33' W 003°26'3 5.0
2017-Oct-16 10:00N 53°33' W 003°22'3 5.1
2017-Oct-16 09:30N 53°32' W 003°18'4 8.4
2017-Oct-16 09:00N 53°32' W 003°11'510.8
2017-Oct-16 08:30N 53°28' W 003°04'510.2
2017-Oct-16 08:00N 53°24' W 002°60'4 8.9
2017-Oct-16 07:30N 53°20' W 002°57'1 1.1
2017-Oct-16 07:00N 53°19' W 002°57'2 4.8
2017-Oct-16 06:30N 53°17' W 002°54'2 3.6
2017-Oct-16 06:00N 53°17' W 002°51'0 0.0
2017-Oct-16 05:30N 53°17' W 002°51'0 0.0
2017-Oct-16 05:00N 53°17' W 002°51'0 0.0
2017-Oct-16 04:30N 53°17' W 002°51'0 0.0
2017-Oct-16 03:57N 53°17' W 002°51'0 0.0
2017-Oct-16 03:30N 53°17' W 002°51'0 0.0
2017-Oct-16 02:57N 53°17' W 002°51'0 0.0
2017-Oct-16 02:30N 53°17' W 002°51'0 0.0
2017-Oct-16 02:00N 53°17' W 002°51'0 0.0
2017-Oct-16 01:30N 53°17' W 002°51'0 0.0
2017-Oct-16 00:54N 53°17' W 002°51'0 0.0
2017-Oct-16 00:24N 53°17' W 002°51'0 0.0
2017-Oct-16 00:00N 53°17' W 002°51'0 0.0
2017-Oct-15 23:27N 53°17' W 002°51'0 0.0
2017-Oct-15 23:00N 53°17' W 002°51'0 0.0
2017-Oct-15 22:27N 53°17' W 002°51'0 0.0
2017-Oct-15 22:00N 53°17' W 002°51'0 0.0
2017-Oct-15 21:27N 53°17' W 002°51'0 0.0
2017-Oct-15 21:00N 53°17' W 002°51'0 0.0
2017-Oct-15 20:30N 53°17' W 002°51'0 0.0
2017-Oct-15 20:00N 53°17' W 002°51'0 0.0
2017-Oct-15 19:30N 53°17' W 002°51'0 0.0
2017-Oct-15 19:00N 53°17' W 002°51'0 0.0
2017-Oct-15 18:30N 53°17' W 002°51'0 0.0
2017-Oct-15 18:00N 53°17' W 002°51'0 0.0
2017-Oct-15 17:24N 53°17' W 002°51'0 0.0
2017-Oct-15 16:57N 53°17' W 002°51'0 0.0
2017-Oct-15 16:27N 53°17' W 002°51'0 0.0
2017-Oct-15 16:00N 53°17' W 002°51'0 0.0
2017-Oct-15 15:30N 53°17' W 002°51'0 0.0
2017-Oct-15 15:00N 53°17' W 002°51'0 0.0
2017-Oct-15 14:00N 53°17' W 002°51'0 0.0
2017-Oct-15 13:30N 53°17' W 002°51'0 0.0
2017-Oct-15 13:00N 53°17' W 002°51'0 0.0
2017-Oct-15 12:30N 53°17' W 002°51'0 0.0
2017-Oct-15 12:00N 53°17' W 002°51'0 0.0
2017-Oct-15 11:30N 53°17' W 002°51'0 0.0
2017-Oct-15 11:00N 53°17' W 002°51'0 0.0
2017-Oct-15 10:30N 53°17' W 002°51'0 0.0
2017-Oct-15 10:00N 53°17' W 002°51'0 0.0
2017-Oct-15 09:30N 53°17' W 002°51'0 0.0
2017-Oct-15 09:00N 53°17' W 002°51'0 0.0
2017-Oct-15 08:30N 53°17' W 002°51'0 0.0
2017-Oct-15 08:00N 53°17' W 002°51'0 0.0
2017-Oct-15 07:27N 53°17' W 002°51'0 0.0
2017-Oct-15 07:00N 53°17' W 002°51'0 0.0
2017-Oct-15 06:30N 53°17' W 002°51'0 0.0
2017-Oct-15 05:57N 53°17' W 002°51'0 0.0
2017-Oct-15 05:30N 53°17' W 002°51'0 0.0
2017-Oct-15 05:00N 53°17' W 002°51'0 0.0
2017-Oct-15 04:30N 53°17' W 002°51'0 0.0
2017-Oct-15 03:57N 53°17' W 002°51'0 0.0
2017-Oct-15 03:24N 53°17' W 002°51'0 0.0
2017-Oct-15 03:00N 53°17' W 002°51'0 0.0
2017-Oct-15 02:30N 53°17' W 002°51'0 0.0
2017-Oct-15 01:57N 53°17' W 002°51'0 0.0
2017-Oct-15 01:27N 53°17' W 002°51'0 0.0
2017-Oct-15 01:00N 53°17' W 002°51'0 0.0
2017-Oct-15 00:30N 53°17' W 002°51'0 0.0
2017-Oct-15 00:00N 53°17' W 002°51'0 0.0
2017-Oct-14 23:30N 53°17' W 002°51'0 0.0
2017-Oct-14 23:00N 53°17' W 002°51'0 0.0
2017-Oct-14 22:30N 53°17' W 002°51'0 0.0
2017-Oct-14 22:00N 53°17' W 002°51'0 0.0
2017-Oct-14 21:30N 53°17' W 002°51'0 0.0
2017-Oct-14 21:01N 53°17' W 002°51'0 0.0
2017-Oct-14 20:30N 53°17' W 002°51'1 1.6
2017-Oct-14 20:00N 53°17' W 002°52'2 3.6
2017-Oct-14 19:30N 53°18' W 002°55'2 3.7
2017-Oct-14 19:00N 53°19' W 002°57'1 2.1
2017-Oct-14 18:31N 53°20' W 002°58'5 9.0
2017-Oct-14 18:01N 53°24' W 003°01'612.2
2017-Oct-14 17:30N 53°30' W 003°06'510.0
2017-Oct-14 17:01N 53°31' W 003°14'510.5
2017-Oct-14 16:30N 53°32' W 003°23'2 4.2
2017-Oct-14 16:01N 53°32' W 003°26'3 5.7
2017-Oct-14 15:30N 53°32' W 003°31'4 8.4
2017-Oct-14 15:00N 53°31' W 003°38'510.5
2017-Oct-14 14:30N 53°33' W 003°47'5910.2
2017-Oct-14 08:39N 54°12' W 005°02'311.2
2017-Oct-14 08:24N 54°15' W 005°03'411.3
2017-Oct-14 08:01N 54°19' W 005°06'611.0
2017-Oct-14 07:31N 54°24' W 005°09'510.8
2017-Oct-14 07:01N 54°29' W 005°12'510.8
2017-Oct-14 06:30N 54°34' W 005°15'611.5
2017-Oct-14 06:01N 54°40' W 005°18'611.8
2017-Oct-14 05:30N 54°45' W 005°21'612.6
2017-Oct-14 05:00N 54°51' W 005°28'613.0
2017-Oct-14 04:30N 54°56' W 005°34'1613.2
2017-Oct-14 03:17N 55°09' W 005°51'413.2
2017-Oct-14 03:00N 55°12' W 005°55'713.3
2017-Oct-14 02:30N 55°17' W 006°02'612.8
2017-Oct-14 02:00N 55°21' W 006°10'612.1
2017-Oct-14 01:31N 55°24' W 006°19'612.1
2017-Oct-14 01:00N 55°29' W 006°26'611.6
2017-Oct-14 00:31N 55°34' W 006°32'510.9
2017-Oct-14 00:00N 55°39' W 006°37'510.5
2017-Oct-13 23:30N 55°43' W 006°41'510.2
2017-Oct-13 23:00N 55°48' W 006°44'510.1
2017-Oct-13 22:30N 55°53' W 006°48'187 6.8
2017-Oct-12 19:03N 58°41' W 004°16'111.3
2017-Oct-12 18:59N 58°41' W 004°15'611.0
2017-Oct-12 18:26N 58°41' W 004°03'510.7
2017-Oct-12 18:00N 58°41' W 003°54'510.6
2017-Oct-12 17:30N 58°41' W 003°44'510.9
2017-Oct-12 17:00N 58°41' W 003°33'510.6
2017-Oct-12 16:30N 58°41' W 003°23'510.6
2017-Oct-12 16:00N 58°40' W 003°13'4 8.8
2017-Oct-12 15:30N 58°39' W 003°05'4 7.5
2017-Oct-12 15:00N 58°37' W 002°59'5 9.8
2017-Oct-12 14:30N 58°33' W 002°53'53 7.9
2017-Oct-12 07:49N 57°51' W 001°54'310.0
2017-Oct-12 07:30N 57°48' W 001°50'510.3
2017-Oct-12 07:00N 57°44' W 001°45'510.3
2017-Oct-12 06:30N 57°40' W 001°39'510.0
2017-Oct-12 06:00N 57°35' W 001°37'510.1
2017-Oct-12 05:31N 57°30' W 001°36'2310.3
2017-Oct-12 03:19N 57°08' W 001°32'9311.0
2017-Oct-11 18:53N 55°35' W 001°19'4 9.8
2017-Oct-11 18:30N 55°31' W 001°18'510.1
2017-Oct-11 18:00N 55°26' W 001°17'510.4
2017-Oct-11 17:30N 55°21' W 001°16'510.4
2017-Oct-11 17:00N 55°16' W 001°15'35 1.4
2017-Oct-10 15:07N 54°41' W 001°05'0 3.5
2017-Oct-10 15:00N 54°41' W 001°04'2 0.6
2017-Oct-10 10:49N 54°42' W 001°00'0 0.1
2017-Oct-10 10:16N 54°42' W 001°00'0 0.0
2017-Oct-10 09:49N 54°42' W 001°00'0 0.0
2017-Oct-10 09:22N 54°42' W 001°00'0 0.0
2017-Oct-10 08:52N 54°42' W 001°00'0 0.0
2017-Oct-10 08:19N 54°42' W 001°00'0 0.0
2017-Oct-10 07:52N 54°42' W 001°00'0 0.0
2017-Oct-10 07:10N 54°42' W 001°00'0 0.0
2017-Oct-10 06:55N 54°42' W 001°00'0 0.0
2017-Oct-10 06:10N 54°42' W 001°00'0 0.0
2017-Oct-10 05:25N 54°42' W 001°00'0 0.0
2017-Oct-10 04:55N 54°42' W 001°00'0 0.0
2017-Oct-10 04:25N 54°42' W 001°00'0 0.0
2017-Oct-10 03:58N 54°42' W 001°00'0 0.0
2017-Oct-10 03:28N 54°42' W 001°00'0 0.1
2017-Oct-10 02:58N 54°42' W 001°00'0 0.0
2017-Oct-10 02:28N 54°42' W 001°00'0 0.0
2017-Oct-10 01:58N 54°42' W 001°00'0 0.0
2017-Oct-10 00:28N 54°42' W 001°00'0 0.0
2017-Oct-09 23:58N 54°42' W 001°00'0 0.0
2017-Oct-09 22:34N 54°42' W 001°00'0 0.0
2017-Oct-09 22:19N 54°42' W 001°00'0 0.0
2017-Oct-09 21:49N 54°42' W 001°00'0 0.0
2017-Oct-09 21:19N 54°42' W 001°00'0 0.0
2017-Oct-09 20:49N 54°42' W 001°00'0 0.0
2017-Oct-09 18:22N 54°42' W 001°00'0 0.0
2017-Oct-09 17:10N 54°42' W 001°00'0 0.0
2017-Oct-09 16:34N 54°42' W 001°00'0 0.1
2017-Oct-09 16:25N 54°42' W 001°00'0 0.1
2017-Oct-09 15:55N 54°42' W 001°00'0 0.0
2017-Oct-09 12:28N 54°42' W 001°00'0 0.0
2017-Oct-09 11:46N 54°42' W 001°00'0 0.1
2017-Oct-09 11:25N 54°42' W 001°00'19 8.9
2017-Oct-09 09:14N 54°33' W 000°31'2 9.2
2017-Oct-09 09:00N 54°32' W 000°27'5 9.1
2017-Oct-09 08:30N 54°29' W 000°21'4 8.6
2017-Oct-09 08:00N 54°26' W 000°16'4 8.2
2017-Oct-09 07:30N 54°23' W 000°11'4 7.9
2017-Oct-09 07:00N 54°21' W 000°05'4 7.4
2017-Oct-09 06:30N 54°18' W 000°02'4 7.1
2017-Oct-09 06:00N 54°15' E 000°02'3 6.8
2017-Oct-09 05:30N 54°13' E 000°07'3 6.4
2017-Oct-09 05:00N 54°11' E 000°11'3 6.7
2017-Oct-09 04:30N 54°09' E 000°16'3 6.9
2017-Oct-09 04:00N 54°07' E 000°21'4 7.1
2017-Oct-09 03:30N 54°04' E 000°21'  

Dump ship's entire track history